Time;durP1;ratioP1;P1;durP2;ratioP2;P2;SDS_P1;SDS_P2;PMS_P1;PMS_P2;Temp;Humidity;BMP_temperature;BMP_pressure;BME280_temperature;BME280_humidity;BME280_pressure;Samples;Min_cycle;Max_cycle;Signal;HPM_P1;HPM_P2
2022/10/06 00:04:40;;;;;;;4.20;2.60;;;21.60;70.10;;;;;;220582;1267;22525;-48
2022/10/06 00:09:43;;;;;;;4.00;2.90;;;21.60;70.10;;;;;;220764;1268;22553;-50
2022/10/06 00:14:47;;;;;;;4.00;2.90;;;21.60;70.10;;;;;;220663;1267;25311;-48
2022/10/06 00:19:50;;;;;;;4.00;3.10;;;21.60;70.10;;;;;;220747;1268;22540;-50
2022/10/06 00:24:54;;;;;;;3.40;2.60;;;21.60;70.10;;;;;;220436;1267;24038;-52
2022/10/06 00:29:58;;;;;;;3.20;2.60;;;21.50;70.40;;;;;;220532;1267;22624;-49
2022/10/06 00:35:02;;;;;;;3.80;2.60;;;21.50;70.20;;;;;;220489;1267;24279;-50
2022/10/06 00:40:08;;;;;;;3.40;2.40;;;21.50;70.10;;;;;;220910;1267;22537;-52
2022/10/06 00:45:12;;;;;;;3.70;2.50;;;21.50;70.10;;;;;;220684;1267;22560;-53
2022/10/06 00:50:16;;;;;;;3.80;2.50;;;21.50;70.20;;;;;;220371;1268;22535;-55
2022/10/06 00:55:21;;;;;;;3.70;2.60;;;21.50;70.10;;;;;;220474;1267;22720;-48
2022/10/06 01:00:25;;;;;;;3.90;2.80;;;21.40;70.10;;;;;;220887;1267;24383;-51
2022/10/06 01:05:34;;;;;;;3.50;2.50;;;21.50;70.00;;;;;;220672;1267;22570;-47
2022/10/06 01:10:37;;;;;;;3.60;2.60;;;21.40;70.10;;;;;;220777;1267;22563;-52
2022/10/06 01:15:51;;;;;;;3.40;2.40;;;21.40;70.00;;;;;;220594;1268;22540;-51
2022/10/06 01:21:24;;;;;;;3.90;2.70;;;21.40;70.00;;;;;;220514;1268;25239;-48
2022/10/06 01:26:30;;;;;;;4.20;2.80;;;21.40;70.00;;;;;;220637;1268;22547;-52
2022/10/06 01:31:34;;;;;;;3.30;2.60;;;21.40;70.10;;;;;;220529;1267;22845;-49
2022/10/06 01:36:40;;;;;;;4.40;2.80;;;21.40;70.00;;;;;;220607;1267;23029;-49
2022/10/06 01:41:46;;;;;;;3.30;2.50;;;21.30;70.00;;;;;;220484;1267;22848;-51
2022/10/06 01:46:50;;;;;;;4.10;2.80;;;21.40;70.00;;;;;;220311;1270;22584;-49
2022/10/06 01:51:54;;;;;;;3.70;2.80;;;21.30;70.00;;;;;;220716;1267;22819;-52
2022/10/06 01:56:58;;;;;;;3.80;2.50;;;21.30;69.90;;;;;;220572;1268;25366;-51
2022/10/06 02:02:03;;;;;;;3.60;2.10;;;21.30;69.80;;;;;;220580;1267;22538;-54
2022/10/06 02:07:07;;;;;;;4.60;2.80;;;21.30;69.90;;;;;;220804;1267;23191;-52
2022/10/06 02:12:17;;;;;;;4.40;2.50;;;21.20;69.80;;;;;;220799;1267;22544;-51
2022/10/06 02:17:21;;;;;;;4.60;3.00;;;21.30;69.90;;;;;;220291;1268;22843;-51
2022/10/06 02:22:25;;;;;;;3.80;2.70;;;21.30;69.90;;;;;;220846;1267;24246;-53
2022/10/06 02:27:29;;;;;;;3.60;2.50;;;21.30;69.90;;;;;;220459;1267;22616;-54
2022/10/06 02:32:38;;;;;;;3.70;2.20;;;21.30;69.80;;;;;;220622;1267;24304;-49
2022/10/06 02:37:42;;;;;;;3.80;2.80;;;21.20;69.90;;;;;;220225;1268;22552;-54
2022/10/06 02:42:47;;;;;;;3.30;2.40;;;21.20;69.80;;;;;;220701;1268;27445;-53
2022/10/06 02:47:53;;;;;;;3.30;2.50;;;21.20;70.00;;;;;;220718;1267;23900;-50
2022/10/06 02:52:57;;;;;;;3.00;2.20;;;21.20;70.10;;;;;;220686;1269;25242;-51
2022/10/06 02:58:03;;;;;;;3.10;2.10;;;21.20;70.30;;;;;;220823;1267;22550;-50
2022/10/06 03:03:07;;;;;;;3.60;2.50;;;21.20;69.80;;;;;;220476;1267;22522;-49
2022/10/06 03:08:11;;;;;;;3.10;2.20;;;21.20;69.80;;;;;;220798;1266;25341;-50
2022/10/06 03:13:15;;;;;;;3.60;2.50;;;21.20;70.10;;;;;;220837;1267;26772;-51
2022/10/06 03:18:20;;;;;;;3.90;2.80;;;21.20;69.80;;;;;;220302;1268;22535;-54
2022/10/06 03:23:24;;;;;;;3.00;2.40;;;21.20;69.80;;;;;;220625;1268;23051;-52
2022/10/06 03:28:27;;;;;;;3.30;2.60;;;21.20;69.80;;;;;;220502;1268;22528;-53
2022/10/06 03:33:33;;;;;;;3.50;2.40;;;21.10;69.70;;;;;;220622;1268;22521;-52
2022/10/06 03:38:37;;;;;;;3.20;2.20;;;21.10;69.70;;;;;;220716;1267;22616;-49
2022/10/06 03:43:43;;;;;;;3.50;2.50;;;21.10;69.80;;;;;;220472;1267;24386;-52
2022/10/06 03:48:48;;;;;;;3.90;2.60;;;21.10;69.70;;;;;;220879;1267;22529;-52
2022/10/06 03:53:53;;;;;;;3.80;2.80;;;21.10;69.80;;;;;;220682;1267;23935;-53
2022/10/06 03:58:59;;;;;;;3.20;2.40;;;21.10;70.00;;;;;;220701;1267;24413;-52
2022/10/06 04:04:04;;;;;;;3.40;2.30;;;21.00;69.20;;;;;;220935;1267;25363;-50
2022/10/06 04:09:12;;;;;;;3.40;2.30;;;21.00;69.50;;;;;;220605;1267;22543;-56
2022/10/06 04:14:18;;;;;;;3.30;2.30;;;21.10;69.70;;;;;;220735;1267;25498;-52
2022/10/06 04:19:22;;;;;;;3.60;2.70;;;21.00;69.60;;;;;;220639;1267;22490;-50
2022/10/06 04:24:29;;;;;;;3.40;2.30;;;21.00;69.50;;;;;;220859;1267;22688;-51
2022/10/06 04:29:33;;;;;;;3.30;2.30;;;21.10;69.60;;;;;;220651;1267;22626;-51
2022/10/06 04:34:37;;;;;;;3.30;2.30;;;21.00;69.40;;;;;;220433;1267;25313;-54
2022/10/06 04:39:42;;;;;;;2.90;2.20;;;21.00;69.10;;;;;;220689;1267;22528;-52
2022/10/06 04:44:46;;;;;;;3.40;2.30;;;21.00;70.00;;;;;;220606;1267;22941;-52
2022/10/06 04:49:50;;;;;;;2.90;2.30;;;21.00;69.70;;;;;;220885;1267;25293;-53
2022/10/06 04:54:54;;;;;;;3.30;2.40;;;21.00;69.40;;;;;;220545;1267;22675;-52
2022/10/06 05:05:21;;;;;;;3.10;2.20;;;21.00;69.40;;;;;;220340;1267;22551;-50
2022/10/06 05:10:27;;;;;;;4.50;1.90;;;20.90;69.30;;;;;;220135;1270;22528;-50
2022/10/06 05:15:31;;;;;;;3.50;2.40;;;20.90;69.20;;;;;;220620;1267;22810;-51
2022/10/06 05:20:35;;;;;;;3.10;2.00;;;20.90;69.20;;;;;;220548;1267;26647;-52
2022/10/06 05:25:48;;;;;;;4.10;2.30;;;21.00;69.30;;;;;;220785;1267;22548;-49
2022/10/06 05:31:04;;;;;;;3.90;2.30;;;20.90;69.30;;;;;;220907;1267;25326;-53
2022/10/06 05:36:13;;;;;;;3.10;2.30;;;20.90;69.60;;;;;;220360;1267;22530;-54
2022/10/06 05:41:22;;;;;;;3.40;2.20;;;20.90;69.20;;;;;;220335;1267;22541;-53
2022/10/06 05:46:29;;;;;;;3.10;2.10;;;21.00;69.10;;;;;;220577;1267;25226;-52
2022/10/06 05:51:34;;;;;;;3.30;2.10;;;21.10;68.80;;;;;;220678;1267;22532;-51
2022/10/06 05:56:42;;;;;;;3.10;2.20;;;21.20;68.50;;;;;;220422;1267;188875;-49
2022/10/06 06:01:46;;;;;;;2.90;1.90;;;21.30;68.20;;;;;;220592;1267;25269;-50
2022/10/06 06:06:55;;;;;;;3.60;2.30;;;21.40;68.00;;;;;;220747;1267;24163;-53
2022/10/06 06:11:59;;;;;;;3.70;2.10;;;21.40;68.00;;;;;;220839;1267;22544;-50
2022/10/06 06:17:10;;;;;;;3.20;2.00;;;21.50;67.60;;;;;;220670;1267;22592;-51
2022/10/06 06:22:14;;;;;;;2.90;1.90;;;21.50;67.60;;;;;;220410;1267;22552;-51
2022/10/06 06:27:19;;;;;;;3.60;2.50;;;21.50;68.00;;;;;;220490;1267;23910;-51
2022/10/06 06:32:23;;;;;;;3.10;2.00;;;21.60;67.70;;;;;;220673;1267;22556;-50
2022/10/06 06:37:30;;;;;;;2.90;2.10;;;21.60;67.80;;;;;;220548;1267;24214;-50
2022/10/06 06:42:34;;;;;;;2.50;1.80;;;21.60;67.20;;;;;;220540;1267;25428;-50
2022/10/06 06:48:02;;;;;;;2.70;2.10;;;21.70;67.50;;;;;;220697;1268;25452;-51
2022/10/06 06:53:06;;;;;;;2.70;1.90;;;21.70;67.10;;;;;;220787;1268;25247;-51
2022/10/06 06:58:18;;;;;;;3.20;2.20;;;21.70;66.80;;;;;;220711;1267;25190;-53
2022/10/06 07:03:22;;;;;;;2.60;1.90;;;21.80;66.70;;;;;;220376;1268;25247;-48
2022/10/06 07:08:47;;;;;;;2.80;1.90;;;21.80;66.60;;;;;;220298;1268;22618;-49
2022/10/06 07:13:54;;;;;;;3.10;1.80;;;21.90;66.50;;;;;;220632;1267;22530;-48
2022/10/06 07:29:53;;;;;;;2.80;1.80;;;22.00;66.50;;;;;;220379;1270;22682;-51
2022/10/06 07:34:59;;;;;;;2.60;1.90;;;22.00;66.40;;;;;;220492;1267;25280;-50
2022/10/06 07:40:09;;;;;;;2.70;1.90;;;21.90;66.80;;;;;;220574;1267;24224;-50
2022/10/06 07:51:15;;;;;;;;;;;21.90;66.40;;;;;;220801;1267;24296;-47
2022/10/06 07:56:21;;;;;;;3.70;2.00;;;22.00;66.50;;;;;;220420;1267;22548;-52
2022/10/06 08:01:32;;;;;;;3.10;2.40;;;22.00;66.50;;;;;;220188;1267;22576;-49
2022/10/06 08:06:40;;;;;;;2.90;1.90;;;22.00;66.50;;;;;;220947;1267;22713;-52
2022/10/06 08:11:46;;;;;;;2.50;1.70;;;22.00;66.40;;;;;;220592;1270;24262;-50
2022/10/06 08:16:51;;;;;;;3.10;1.90;;;22.10;66.20;;;;;;220583;1267;22546;-50
2022/10/06 08:21:54;;;;;;;3.40;2.20;;;22.10;66.30;;;;;;220527;1267;24409;-50
2022/10/06 08:27:03;;;;;;;2.50;1.70;;;22.10;66.30;;;;;;220634;1267;22565;-51
2022/10/06 08:32:10;;;;;;;2.50;1.80;;;22.10;66.30;;;;;;220145;1266;22528;-52
2022/10/06 08:37:15;;;;;;;3.20;1.80;;;22.10;66.30;;;;;;220399;1267;24175;-51
2022/10/06 08:42:34;;;;;;;2.40;2.00;;;22.10;66.20;;;;;;220596;1267;22617;-50
2022/10/06 08:47:46;;;;;;;2.50;1.60;;;22.20;66.60;;;;;;220628;1268;25217;-50
2022/10/06 08:52:58;;;;;;;2.40;1.70;;;22.10;66.20;;;;;;220582;1268;25225;-53
2022/10/06 08:58:31;;;;;;;2.90;1.90;;;22.10;66.60;;;;;;220569;1267;23902;-51
2022/10/06 09:03:37;;;;;;;2.90;2.00;;;22.10;66.60;;;;;;220685;1268;25294;-51
2022/10/06 09:08:52;;;;;;;2.70;1.70;;;22.10;66.80;;;;;;220569;1268;22515;-52
2022/10/06 09:14:01;;;;;;;2.20;1.50;;;22.00;66.60;;;;;;220646;1270;25847;-53
2022/10/06 09:19:15;;;;;;;2.70;1.90;;;22.00;67.10;;;;;;220662;1268;23964;-48
2022/10/06 09:24:41;;;;;;;2.60;1.80;;;22.00;67.10;;;;;;220526;1267;22546;-53
2022/10/06 09:29:50;;;;;;;2.40;1.60;;;22.00;67.10;;;;;;220718;1267;24303;-51
2022/10/06 09:34:58;;;;;;;2.40;1.50;;;21.90;67.10;;;;;;221065;1268;25235;-49
2022/10/06 09:40:45;;;;;;;2.30;1.60;;;21.90;67.20;;;;;;220825;1268;25268;-52
2022/10/06 09:45:50;;;;;;;2.50;1.60;;;21.90;67.30;;;;;;220304;1268;25367;-51
2022/10/06 09:51:13;;;;;;;2.40;1.60;;;21.90;67.40;;;;;;220425;1270;22859;-51
2022/10/06 09:56:18;;;;;;;2.40;1.50;;;21.80;67.40;;;;;;220835;1268;24478;-52
2022/10/06 10:01:27;;;;;;;2.40;1.80;;;21.80;67.30;;;;;;220816;1267;24215;-55
2022/10/06 10:06:35;;;;;;;2.40;1.70;;;21.80;67.30;;;;;;220479;1268;22615;-53
2022/10/06 10:17:21;;;;;;;2.50;1.80;;;21.80;67.50;;;;;;220624;1267;26577;-51
2022/10/06 10:22:37;;;;;;;2.30;1.30;;;21.80;68.20;;;;;;220331;1267;24253;-52
2022/10/06 10:27:53;;;;;;;2.50;1.70;;;21.80;67.60;;;;;;220686;1267;25346;-48
2022/10/06 10:33:17;;;;;;;2.20;1.50;;;21.80;67.90;;;;;;220687;1270;25588;-52
2022/10/06 10:38:23;;;;;;;2.00;1.40;;;21.80;67.60;;;;;;220698;1267;26232;-50
2022/10/06 10:43:36;;;;;;;2.40;1.50;;;21.70;68.00;;;;;;220409;1267;24296;-54
2022/10/06 10:49:03;;;;;;;2.20;1.50;;;21.80;67.70;;;;;;220561;1270;22745;-53
2022/10/06 10:54:20;;;;;;;2.50;1.70;;;21.70;67.80;;;;;;220643;1268;25245;-50
2022/10/06 10:59:42;;;;;;;2.30;1.50;;;21.70;67.70;;;;;;221082;1269;25248;-53
2022/10/06 11:04:50;;;;;;;3.40;1.60;;;21.70;67.80;;;;;;220527;1268;25365;-52
2022/10/06 11:10:16;;;;;;;2.70;1.80;;;21.70;68.10;;;;;;220673;1270;25234;-55
2022/10/06 11:15:53;;;;;;;3.20;1.90;;;21.70;68.40;;;;;;220142;1268;25240;-51
2022/10/06 11:21:04;;;;;;;2.40;1.50;;;21.70;67.80;;;;;;220782;1270;24299;-54
2022/10/06 11:26:11;;;;;;;2.40;1.60;;;21.70;67.80;;;;;;220506;1268;25248;-48
2022/10/06 11:31:23;;;;;;;3.00;1.80;;;21.70;67.80;;;;;;220681;1268;22547;-50
2022/10/06 11:36:41;;;;;;;2.30;1.60;;;21.70;67.90;;;;;;220483;1268;25245;-51
2022/10/06 11:41:51;;;;;;;2.60;1.50;;;21.70;67.90;;;;;;220296;1270;22979;-52
2022/10/06 11:47:00;;;;;;;2.20;1.50;;;21.70;67.90;;;;;;220378;1270;25424;-52
2022/10/06 11:52:10;;;;;;;2.10;1.40;;;21.70;68.10;;;;;;220268;1268;22556;-50
2022/10/06 11:57:23;;;;;;;2.20;1.50;;;21.70;67.90;;;;;;220582;1268;22560;-53
2022/10/06 12:02:38;;;;;;;2.70;1.60;;;21.70;67.90;;;;;;220722;1269;22543;-50
2022/10/06 12:07:51;;;;;;;2.30;1.50;;;21.70;67.90;;;;;;220410;1268;24245;-48
2022/10/06 12:13:18;;;;;;;2.30;1.60;;;21.70;67.90;;;;;;220436;1268;22528;-51
2022/10/06 12:19:17;;;;;;;2.30;1.60;;;21.70;68.20;;;;;;220838;1269;22537;-50
2022/10/06 12:24:42;;;;;;;2.20;1.50;;;21.80;67.70;;;;;;220287;1268;22943;-50
2022/10/06 12:29:51;;;;;;;2.80;1.50;;;21.80;67.70;;;;;;220196;1268;22541;-52
2022/10/06 12:35:29;;;;;;;2.40;1.60;;;21.80;67.80;;;;;;220320;1267;25235;-50
2022/10/06 12:40:42;;;;;;;2.10;1.50;;;21.80;67.80;;;;;;220221;1268;25304;-54
2022/10/06 12:45:57;;;;;;;2.20;1.50;;;21.70;68.10;;;;;;220608;1268;22574;-49
2022/10/06 12:51:09;;;;;;;2.40;1.60;;;21.70;67.70;;;;;;220374;1268;25444;-53
2022/10/06 12:56:27;;;;;;;2.20;1.30;;;21.70;68.10;;;;;;220452;1268;25367;-52
2022/10/06 13:01:31;;;;;;;2.10;1.40;;;21.70;67.80;;;;;;220630;1268;22620;-51
2022/10/06 13:06:37;;;;;;;2.40;1.60;;;21.70;67.80;;;;;;220773;1268;22538;-50
2022/10/06 13:11:41;;;;;;;2.00;1.30;;;21.70;67.80;;;;;;220557;1267;22547;-53
2022/10/06 13:16:46;;;;;;;2.10;1.30;;;21.80;67.80;;;;;;220388;1268;24391;-53
2022/10/06 13:21:50;;;;;;;2.00;1.30;;;21.90;67.60;;;;;;220342;1271;24218;-52
2022/10/06 13:26:55;;;;;;;2.50;1.50;;;21.90;67.50;;;;;;220239;1268;22550;-50
2022/10/06 13:32:00;;;;;;;2.60;1.40;;;22.00;67.50;;;;;;220632;1268;25205;-53
2022/10/06 13:37:04;;;;;;;2.10;1.40;;;22.00;67.50;;;;;;220222;1268;22544;-51
2022/10/06 13:42:16;;;;;;;2.40;1.60;;;22.00;67.40;;;;;;220610;1268;24215;-50
2022/10/06 13:47:24;;;;;;;3.80;1.60;;;22.00;67.30;;;;;;220802;1267;23006;-48
2022/10/06 13:52:47;;;;;;;1.90;1.30;;;22.10;67.30;;;;;;220542;1268;22554;-52
2022/10/06 13:58:05;;;;;;;2.10;1.30;;;22.10;67.30;;;;;;220176;1268;25399;-50
2022/10/06 14:03:24;;;;;;;2.50;1.60;;;22.10;67.50;;;;;;220310;1267;24066;-49
2022/10/06 14:08:27;;;;;;;1.90;1.40;;;22.20;67.60;;;;;;220583;1267;22556;-51
2022/10/06 14:13:50;;;;;;;2.30;1.40;;;22.10;67.30;;;;;;220487;1267;24146;-54
2022/10/06 14:18:58;;;;;;;2.50;1.30;;;22.20;67.20;;;;;;220566;1267;24281;-52
2022/10/06 14:24:19;;;;;;;2.30;1.60;;;22.20;67.30;;;;;;220562;1267;22592;-53
2022/10/06 14:29:25;;;;;;;1.90;1.30;;;22.20;67.30;;;;;;220554;1268;24341;-51
2022/10/06 14:34:30;;;;;;;2.10;1.40;;;22.10;67.20;;;;;;220337;1268;22844;-52
2022/10/06 14:39:34;;;;;;;1.80;1.20;;;22.10;67.20;;;;;;220695;1268;24295;-51
2022/10/06 14:44:38;;;;;;;2.70;1.40;;;22.10;67.20;;;;;;220432;1267;22628;-52
2022/10/06 14:49:43;;;;;;;1.60;1.20;;;22.10;67.10;;;;;;220849;1267;25330;-49
2022/10/06 14:54:47;;;;;;;2.30;1.50;;;22.10;67.50;;;;;;220460;1267;22532;-50
2022/10/06 14:59:51;;;;;;;2.20;1.40;;;22.10;67.20;;;;;;220945;1266;22681;-53
2022/10/06 15:04:55;;;;;;;2.10;1.30;;;22.10;67.10;;;;;;220900;1267;22538;-49
2022/10/06 15:09:59;;;;;;;2.60;1.40;;;22.00;67.50;;;;;;220983;1267;25358;-51
2022/10/06 15:15:06;;;;;;;2.50;1.60;;;22.00;67.50;;;;;;220490;1267;25232;-56
2022/10/06 15:20:13;;;;;;;2.10;1.20;;;22.00;67.20;;;;;;220789;1267;22564;-49
2022/10/06 15:30:42;;;;;;;2.50;1.50;;;22.00;67.30;;;;;;220667;1267;23892;-49
2022/10/06 15:36:18;;;;;;;2.00;1.30;;;22.00;67.20;;;;;;220907;1267;22713;-53
2022/10/06 15:41:29;;;;;;;1.80;1.20;;;21.90;67.20;;;;;;220873;1267;22611;-51
2022/10/06 15:46:38;;;;;;;2.50;1.30;;;22.00;67.30;;;;;;220369;1267;25239;-49
2022/10/06 15:51:47;;;;;;;2.20;1.40;;;22.00;67.40;;;;;;220617;1267;22577;-49
2022/10/06 15:56:54;;;;;;;2.10;1.30;;;21.90;67.30;;;;;;220378;1267;22849;-51
2022/10/06 16:02:06;;;;;;;2.80;1.50;;;21.90;67.10;;;;;;220418;1267;23175;-50
2022/10/06 16:07:16;;;;;;;2.40;1.60;;;21.90;67.30;;;;;;220611;1267;22561;-50
2022/10/06 16:12:27;;;;;;;2.00;1.30;;;21.90;67.30;;;;;;220456;1268;25821;-50
2022/10/06 16:17:32;;;;;;;2.10;1.20;;;21.90;67.60;;;;;;220579;1267;22541;-52
2022/10/06 16:22:42;;;;;;;3.50;1.60;;;21.80;67.20;;;;;;220340;1268;22601;-52
2022/10/06 16:27:47;;;;;;;2.70;1.60;;;21.80;67.30;;;;;;220204;1267;23909;-51
2022/10/06 16:32:52;;;;;;;2.60;1.30;;;21.80;67.60;;;;;;220413;1267;22686;-49
2022/10/06 16:37:58;;;;;;;2.00;1.20;;;21.80;67.30;;;;;;220336;1267;24430;-54
2022/10/06 16:43:02;;;;;;;2.30;1.40;;;21.80;67.20;;;;;;220877;1267;22557;-52
2022/10/06 16:48:07;;;;;;;2.30;1.20;;;21.80;67.40;;;;;;220787;1267;24387;-49
2022/10/06 16:53:10;;;;;;;2.40;1.30;;;21.80;67.50;;;;;;220935;1267;22838;-48
2022/10/06 16:58:22;;;;;;;2.10;1.40;;;21.70;67.30;;;;;;220606;1267;25354;-52
2022/10/06 17:03:26;;;;;;;2.20;1.30;;;21.70;67.50;;;;;;220738;1267;25232;-52
2022/10/06 17:08:29;;;;;;;2.70;1.50;;;21.70;67.50;;;;;;220631;1267;23023;-50
2022/10/06 17:13:35;;;;;;;2.00;1.30;;;21.70;67.50;;;;;;220424;1267;22554;-50
2022/10/06 17:18:45;;;;;;;2.80;1.30;;;21.70;67.50;;;;;;220345;1267;24279;-53
2022/10/06 17:24:02;;;;;;;3.50;1.30;;;21.70;67.50;;;;;;220422;1267;25303;-52
2022/10/06 17:29:20;;;;;;;2.20;1.30;;;21.70;67.50;;;;;;220478;1267;22525;-50
2022/10/06 17:34:27;;;;;;;2.30;1.40;;;21.60;67.50;;;;;;220421;1267;25200;-52
2022/10/06 17:39:36;;;;;;;2.60;1.60;;;21.60;67.50;;;;;;220701;1267;24377;-51
2022/10/06 17:44:40;;;;;;;2.30;1.40;;;21.60;67.50;;;;;;220724;1267;22557;-50
2022/10/06 17:49:44;;;;;;;2.20;1.30;;;21.60;67.50;;;;;;220531;1267;24214;-52
2022/10/06 17:55:35;;;;;;;2.70;1.60;;;21.60;67.50;;;;;;208665;1335;543294;-50
2022/10/06 18:00:38;;;;;;;1.80;1.20;;;21.50;67.50;;;;;;213171;1289;22503;-49
2022/10/06 18:05:53;;;;;;;2.70;1.50;;;21.50;67.50;;;;;;213066;1310;153461;-52
2022/10/06 18:16:28;;;;;;;1.90;1.30;;;21.50;67.60;;;;;;213377;1310;22471;-50
2022/10/06 18:21:38;;;;;;;2.50;1.40;;;21.50;67.60;;;;;;213337;1301;22496;-49
2022/10/06 18:26:46;;;;;;;2.20;1.40;;;21.50;67.70;;;;;;213368;1294;24276;-47
2022/10/06 18:31:52;;;;;;;3.10;1.40;;;21.50;67.70;;;;;;213375;1310;25395;-51
2022/10/06 18:36:59;;;;;;;1.90;1.20;;;21.50;67.70;;;;;;213334;1306;23458;-51
2022/10/06 18:42:10;;;;;;;2.20;1.30;;;21.40;67.70;;;;;;213330;1295;23158;-51
2022/10/06 18:52:41;;;;;;;2.20;1.30;;;21.40;67.70;;;;;;213330;1310;26638;-53
2022/10/06 18:57:51;;;;;;;2.20;1.40;;;21.40;67.70;;;;;;213459;1301;25093;-48
2022/10/06 19:02:55;;;;;;;3.20;1.40;;;21.30;67.70;;;;;;213289;1297;23695;-52
2022/10/06 19:08:01;;;;;;;2.30;1.40;;;21.30;67.70;;;;;;213441;1296;22621;-52
2022/10/06 19:13:13;;;;;;;3.30;1.60;;;21.40;67.90;;;;;;213324;1313;22607;-49
2022/10/06 19:18:38;;;;;;;2.40;1.40;;;21.30;67.60;;;;;;213358;1312;24240;-49
2022/10/06 19:23:49;;;;;;;2.40;1.40;;;21.30;67.70;;;;;;213444;1313;24250;-49
2022/10/06 19:28:52;;;;;;;2.70;1.60;;;21.30;67.90;;;;;;213490;1294;25601;-52
2022/10/06 19:34:03;;;;;;;2.30;1.40;;;21.30;67.90;;;;;;213312;1313;23868;-53
2022/10/06 19:39:19;;;;;;;3.60;1.70;;;21.30;67.90;;;;;;213317;1309;25437;-53
2022/10/06 19:44:39;;;;;;;2.50;1.40;;;21.30;68.00;;;;;;213322;1298;22529;-54
2022/10/06 19:49:57;;;;;;;8.70;2.20;;;21.30;68.30;;;;;;213309;1300;24241;-56
2022/10/06 19:55:11;;;;;;;9.70;3.30;;;21.30;67.70;;;;;;213333;1313;25258;-52
2022/10/06 20:00:15;;;;;;;9.00;3.40;;;21.30;66.90;;;;;;213260;1313;25417;-54
2022/10/06 20:05:25;;;;;;;10.90;3.50;;;21.30;66.90;;;;;;213392;1290;24334;-50
2022/10/06 20:10:41;;;;;;;10.20;3.60;;;21.30;66.90;;;;;;214210;1287;22669;-49
2022/10/06 20:15:47;;;;;;;9.90;3.60;;;21.40;67.10;;;;;;214287;1303;22469;-51
2022/10/06 20:20:56;;;;;;;6.90;3.40;;;21.40;67.50;;;;;;215141;1290;22515;-55
2022/10/06 20:26:24;;;;;;;9.20;4.50;;;21.30;67.50;;;;;;215012;1298;24459;-52
2022/10/06 20:31:48;;;;;;;13.10;4.60;;;21.30;67.40;;;;;;214925;1284;24472;-54
2022/10/06 20:36:58;;;;;;;15.90;5.40;;;21.30;67.50;;;;;;214933;1300;22457;-54
2022/10/06 20:42:10;;;;;;;18.80;4.60;;;21.30;67.50;;;;;;214884;1303;25377;-53
2022/10/06 20:47:33;;;;;;;15.70;5.30;;;21.30;68.60;;;;;;215108;1292;22509;-54
2022/10/06 20:53:03;;;;;;;11.40;4.40;;;21.30;68.40;;;;;;214957;1292;22470;-52
2022/10/06 20:58:17;;;;;;;12.20;4.20;;;21.30;68.50;;;;;;214986;1293;22457;-50
2022/10/06 21:03:29;;;;;;;12.30;4.50;;;21.20;68.60;;;;;;214913;1301;24288;-52
2022/10/06 21:08:43;;;;;;;14.60;4.70;;;21.20;69.00;;;;;;214970;1287;24231;-50
2022/10/06 21:13:52;;;;;;;12.50;4.20;;;21.30;69.70;;;;;;215071;1288;24287;-49
2022/10/06 21:19:09;;;;;;;11.60;4.80;;;21.30;69.60;;;;;;214898;1286;22573;-50
2022/10/06 21:24:13;;;;;;;9.60;4.30;;;21.20;69.90;;;;;;214856;1289;24237;-49
2022/10/06 21:29:26;;;;;;;12.90;4.60;;;21.20;69.50;;;;;;215063;1281;24294;-50
2022/10/06 21:34:39;;;;;;;7.90;4.30;;;21.20;69.40;;;;;;214792;1286;24226;-53
2022/10/06 21:39:43;;;;;;;10.60;4.70;;;21.10;69.40;;;;;;214964;1288;24232;-48
2022/10/06 21:44:46;;;;;;;10.80;4.70;;;21.20;69.40;;;;;;214958;1291;23598;-51
2022/10/06 21:49:54;;;;;;;9.30;4.20;;;21.20;69.30;;;;;;214873;1295;24079;-49
2022/10/06 21:55:03;;;;;;;8.30;4.20;;;21.10;69.30;;;;;;215000;1282;24209;-48
2022/10/06 22:00:10;;;;;;;14.20;4.70;;;21.20;69.30;;;;;;215069;1286;22465;-49
2022/10/06 22:05:17;;;;;;;14.60;4.50;;;21.10;69.30;;;;;;214942;1303;26491;-49
2022/10/06 22:10:20;;;;;;;7.10;4.20;;;21.10;69.30;;;;;;215236;1294;23940;-56
2022/10/06 22:15:24;;;;;;;9.00;4.50;;;21.10;69.30;;;;;;215108;1286;22457;-48
2022/10/06 22:20:28;;;;;;;9.30;4.70;;;21.10;69.20;;;;;;214785;1286;22476;-49
2022/10/06 22:25:34;;;;;;;8.00;3.80;;;21.10;69.20;;;;;;215001;1290;26455;-49
2022/10/06 22:30:37;;;;;;;8.40;4.50;;;21.10;69.30;;;;;;215026;1282;23050;-49
2022/10/06 22:35:53;;;;;;;12.70;4.20;;;21.00;69.20;;;;;;214961;1276;22480;-49
2022/10/06 22:41:06;;;;;;;8.10;4.50;;;21.00;69.60;;;;;;214999;1299;25356;-50
2022/10/06 22:46:10;;;;;;;9.10;4.30;;;21.00;69.30;;;;;;215056;1285;22474;-49
2022/10/06 22:51:19;;;;;;;9.40;4.10;;;21.00;69.30;;;;;;215045;1275;25227;-48
2022/10/06 22:56:23;;;;;;;9.30;5.10;;;21.00;69.40;;;;;;215026;1294;23864;-53
2022/10/06 23:01:28;;;;;;;7.40;4.30;;;21.00;69.20;;;;;;215177;1282;22449;-52
2022/10/06 23:06:33;;;;;;;7.80;4.20;;;21.00;69.30;;;;;;215020;1300;25276;-47
2022/10/06 23:11:36;;;;;;;7.20;3.90;;;21.00;69.20;;;;;;214856;1294;22474;-49
2022/10/06 23:16:43;;;;;;;10.20;5.10;;;21.10;69.40;;;;;;214873;1301;25273;-51
2022/10/06 23:21:50;;;;;;;8.20;4.00;;;21.20;68.80;;;;;;214811;1295;23992;-50
2022/10/06 23:27:03;;;;;;;7.90;4.40;;;21.30;68.50;;;;;;214708;1289;22476;-49
2022/10/06 23:32:06;;;;;;;9.30;4.80;;;21.40;68.20;;;;;;215044;1291;22506;-53
2022/10/06 23:37:10;;;;;;;7.00;4.00;;;21.50;67.80;;;;;;215219;1297;26897;-49
2022/10/06 23:42:13;;;;;;;7.50;4.40;;;21.50;67.70;;;;;;214907;1303;25410;-51
2022/10/06 23:47:17;;;;;;;8.60;4.70;;;21.50;67.60;;;;;;214900;1295;24263;-51
2022/10/06 23:52:20;;;;;;;8.20;4.60;;;21.50;67.70;;;;;;214926;1288;22462;-48
2022/10/06 23:57:26;;;;;;;9.90;4.90;;;21.50;68.00;;;;;;215057;1285;22453;-52
